sensor_id;sensor_type;location;lat;lon;timestamp;P1;durP1;ratioP1;P2;durP2;ratioP2
48647;SDS011;34437;-33.956;151.076;2023-01-26T00:02:19;5.50;;;3.88;;
48647;SDS011;34437;-33.956;151.076;2023-01-26T00:04:42;6.55;;;3.50;;
48647;SDS011;34437;-33.956;151.076;2023-01-26T00:07:04;4.22;;;3.67;;
48647;SDS011;34437;-33.956;151.076;2023-01-26T00:09:26;5.03;;;3.67;;
48647;SDS011;34437;-33.956;151.076;2023-01-26T00:11:49;4.20;;;3.40;;
48647;SDS011;34437;-33.956;151.076;2023-01-26T00:14:11;3.80;;;3.17;;
48647;SDS011;34437;-33.956;151.076;2023-01-26T00:16:34;3.75;;;3.20;;
48647;SDS011;34437;-33.956;151.076;2023-01-26T00:18:56;4.47;;;3.67;;
48647;SDS011;34437;-33.956;151.076;2023-01-26T00:21:19;4.35;;;3.50;;
48647;SDS011;34437;-33.956;151.076;2023-01-26T00:23:43;4.10;;;3.40;;
48647;SDS011;34437;-33.956;151.076;2023-01-26T00:26:06;3.95;;;3.55;;
48647;SDS011;34437;-33.956;151.076;2023-01-26T00:28:34;4.75;;;3.97;;
48647;SDS011;34437;-33.956;151.076;2023-01-26T00:33:29;3.83;;;3.40;;
48647;SDS011;34437;-33.956;151.076;2023-01-26T00:35:54;3.90;;;3.50;;
48647;SDS011;34437;-33.956;151.076;2023-01-26T00:38:17;4.18;;;3.67;;
48647;SDS011;34437;-33.956;151.076;2023-01-26T00:40:39;4.43;;;3.60;;
48647;SDS011;34437;-33.956;151.076;2023-01-26T00:43:02;4.07;;;3.58;;
48647;SDS011;34437;-33.956;151.076;2023-01-26T00:45:24;4.20;;;3.45;;
48647;SDS011;34437;-33.956;151.076;2023-01-26T00:47:47;5.22;;;3.53;;
48647;SDS011;34437;-33.956;151.076;2023-01-26T00:50:10;4.88;;;3.78;;
48647;SDS011;34437;-33.956;151.076;2023-01-26T00:52:32;4.05;;;3.47;;
48647;SDS011;34437;-33.956;151.076;2023-01-26T00:54:55;4.57;;;3.83;;
48647;SDS011;34437;-33.956;151.076;2023-01-26T00:57:17;4.03;;;3.63;;
48647;SDS011;34437;-33.956;151.076;2023-01-26T00:59:40;4.00;;;3.60;;
48647;SDS011;34437;-33.956;151.076;2023-01-26T01:02:02;4.07;;;3.67;;
48647;SDS011;34437;-33.956;151.076;2023-01-26T01:04:25;4.10;;;3.55;;
48647;SDS011;34437;-33.956;151.076;2023-01-26T01:06:47;3.88;;;3.47;;
48647;SDS011;34437;-33.956;151.076;2023-01-26T01:09:10;4.40;;;4.00;;
48647;SDS011;34437;-33.956;151.076;2023-01-26T01:11:33;3.80;;;3.40;;
48647;SDS011;34437;-33.956;151.076;2023-01-26T01:13:56;4.25;;;3.85;;
48647;SDS011;34437;-33.956;151.076;2023-01-26T01:16:18;3.85;;;3.45;;
48647;SDS011;34437;-33.956;151.076;2023-01-26T01:18:41;3.92;;;3.42;;
48647;SDS011;34437;-33.956;151.076;2023-01-26T01:21:05;3.75;;;3.35;;
48647;SDS011;34437;-33.956;151.076;2023-01-26T01:23:33;3.85;;;3.45;;
48647;SDS011;34437;-33.956;151.076;2023-01-26T01:25:56;3.93;;;3.53;;
48647;SDS011;34437;-33.956;151.076;2023-01-26T01:28:19;3.78;;;3.40;;
48647;SDS011;34437;-33.956;151.076;2023-01-26T01:30:42;4.28;;;3.88;;
48647;SDS011;34437;-33.956;151.076;2023-01-26T01:33:04;4.40;;;4.00;;
48647;SDS011;34437;-33.956;151.076;2023-01-26T01:35:26;4.63;;;4.22;;
48647;SDS011;34437;-33.956;151.076;2023-01-26T01:37:49;4.72;;;4.32;;
48647;SDS011;34437;-33.956;151.076;2023-01-26T01:40:12;5.10;;;4.60;;
48647;SDS011;34437;-33.956;151.076;2023-01-26T01:50:48;4.85;;;4.45;;
48647;SDS011;34437;-33.956;151.076;2023-01-26T02:13:34;5.60;;;5.00;;
48647;SDS011;34437;-33.956;151.076;2023-01-26T02:15:47;5.43;;;4.93;;
48647;SDS011;34437;-33.956;151.076;2023-01-26T02:24:24;5.35;;;4.85;;
48647;SDS011;34437;-33.956;151.076;2023-01-26T03:26:32;7.82;;;6.47;;
48647;SDS011;34437;-33.956;151.076;2023-01-26T07:19:09;6.25;;;4.85;;
48647;SDS011;34437;-33.956;151.076;2023-01-26T07:21:31;6.43;;;5.13;;
48647;SDS011;34437;-33.956;151.076;2023-01-26T07:26:17;6.88;;;5.07;;
48647;SDS011;34437;-33.956;151.076;2023-01-26T07:28:40;6.85;;;5.20;;
48647;SDS011;34437;-33.956;151.076;2023-01-26T07:31:03;6.80;;;5.70;;
48647;SDS011;34437;-33.956;151.076;2023-01-26T07:33:30;6.53;;;4.90;;
48647;SDS011;34437;-33.956;151.076;2023-01-26T07:35:55;7.15;;;5.30;;
48647;SDS011;34437;-33.956;151.076;2023-01-26T07:38:18;6.22;;;5.25;;
48647;SDS011;34437;-33.956;151.076;2023-01-26T07:40:41;7.28;;;5.38;;
48647;SDS011;34437;-33.956;151.076;2023-01-26T07:43:04;6.90;;;5.90;;
48647;SDS011;34437;-33.956;151.076;2023-01-26T07:45:26;6.97;;;5.80;;
48647;SDS011;34437;-33.956;151.076;2023-01-26T07:47:49;7.03;;;5.90;;
48647;SDS011;34437;-33.956;151.076;2023-01-26T07:52:34;9.55;;;7.45;;
48647;SDS011;34437;-33.956;151.076;2023-01-26T07:54:58;9.10;;;8.07;;
48647;SDS011;34437;-33.956;151.076;2023-01-26T07:57:20;10.68;;;7.97;;
48647;SDS011;34437;-33.956;151.076;2023-01-26T07:59:42;10.68;;;8.65;;
48647;SDS011;34437;-33.956;151.076;2023-01-26T08:02:05;9.95;;;8.40;;
48647;SDS011;34437;-33.956;151.076;2023-01-26T08:04:29;9.75;;;8.35;;
48647;SDS011;34437;-33.956;151.076;2023-01-26T08:06:52;9.35;;;7.88;;
48647;SDS011;34437;-33.956;151.076;2023-01-26T08:09:14;9.55;;;8.20;;
48647;SDS011;34437;-33.956;151.076;2023-01-26T08:11:36;9.68;;;8.68;;
48647;SDS011;34437;-33.956;151.076;2023-01-26T08:13:59;11.60;;;8.73;;
48647;SDS011;34437;-33.956;151.076;2023-01-26T08:16:24;10.25;;;8.77;;
48647;SDS011;34437;-33.956;151.076;2023-01-26T08:18:46;10.20;;;9.07;;
48647;SDS011;34437;-33.956;151.076;2023-01-26T08:21:10;9.73;;;8.73;;
48647;SDS011;34437;-33.956;151.076;2023-01-26T08:23:33;10.13;;;8.75;;
48647;SDS011;34437;-33.956;151.076;2023-01-26T08:26:00;10.27;;;8.73;;
48647;SDS011;34437;-33.956;151.076;2023-01-26T08:28:23;9.60;;;8.55;;
48647;SDS011;34437;-33.956;151.076;2023-01-26T08:30:46;10.50;;;8.73;;
48647;SDS011;34437;-33.956;151.076;2023-01-26T08:33:08;12.27;;;9.68;;
48647;SDS011;34437;-33.956;151.076;2023-01-26T08:35:31;11.23;;;9.77;;
48647;SDS011;34437;-33.956;151.076;2023-01-26T08:37:53;11.55;;;9.68;;
48647;SDS011;34437;-33.956;151.076;2023-01-26T08:40:16;9.73;;;8.43;;
48647;SDS011;34437;-33.956;151.076;2023-01-26T08:42:38;9.88;;;8.82;;
48647;SDS011;34437;-33.956;151.076;2023-01-26T08:45:01;8.68;;;7.78;;
48647;SDS011;34437;-33.956;151.076;2023-01-26T08:47:23;9.48;;;8.45;;
48647;SDS011;34437;-33.956;151.076;2023-01-26T08:49:46;8.52;;;7.22;;
48647;SDS011;34437;-33.956;151.076;2023-01-26T08:52:08;7.75;;;6.43;;
48647;SDS011;34437;-33.956;151.076;2023-01-26T08:54:30;8.05;;;7.00;;
48647;SDS011;34437;-33.956;151.076;2023-01-26T08:56:53;7.72;;;6.18;;
48647;SDS011;34437;-33.956;151.076;2023-01-26T08:59:15;8.38;;;6.57;;
48647;SDS011;34437;-33.956;151.076;2023-01-26T09:01:37;7.82;;;6.00;;
48647;SDS011;34437;-33.956;151.076;2023-01-26T09:04:00;7.07;;;5.75;;
48647;SDS011;34437;-33.956;151.076;2023-01-26T09:06:23;7.00;;;5.40;;
48647;SDS011;34437;-33.956;151.076;2023-01-26T09:08:47;6.72;;;6.03;;
48647;SDS011;34437;-33.956;151.076;2023-01-26T09:11:10;6.30;;;5.43;;
48647;SDS011;34437;-33.956;151.076;2023-01-26T09:13:32;6.50;;;5.38;;
48647;SDS011;34437;-33.956;151.076;2023-01-26T09:15:56;6.80;;;5.15;;
48647;SDS011;34437;-33.956;151.076;2023-01-26T09:18:19;4.85;;;4.30;;
48647;SDS011;34437;-33.956;151.076;2023-01-26T09:20:41;5.80;;;4.43;;
48647;SDS011;34437;-33.956;151.076;2023-01-26T09:23:04;5.33;;;4.20;;
48647;SDS011;34437;-33.956;151.076;2023-01-26T09:25:27;4.45;;;3.83;;
48647;SDS011;34437;-33.956;151.076;2023-01-26T09:27:50;4.47;;;4.03;;
48647;SDS011;34437;-33.956;151.076;2023-01-26T09:30:12;5.68;;;3.50;;
48647;SDS011;34437;-33.956;151.076;2023-01-26T09:32:35;4.20;;;3.60;;
48647;SDS011;34437;-33.956;151.076;2023-01-26T09:34:57;4.20;;;3.45;;
48647;SDS011;34437;-33.956;151.076;2023-01-26T09:37:20;4.75;;;3.50;;
48647;SDS011;34437;-33.956;151.076;2023-01-26T09:39:42;3.72;;;3.00;;
48647;SDS011;34437;-33.956;151.076;2023-01-26T09:42:16;4.00;;;3.33;;
48647;SDS011;34437;-33.956;151.076;2023-01-26T09:47:45;4.85;;;3.13;;
48647;SDS011;34437;-33.956;151.076;2023-01-26T09:50:20;4.93;;;3.38;;
48647;SDS011;34437;-33.956;151.076;2023-01-26T09:52:54;4.45;;;3.40;;
48647;SDS011;34437;-33.956;151.076;2023-01-26T09:55:18;4.50;;;3.40;;
48647;SDS011;34437;-33.956;151.076;2023-01-26T09:57:51;4.90;;;3.20;;
48647;SDS011;34437;-33.956;151.076;2023-01-26T10:00:28;4.25;;;3.40;;
48647;SDS011;34437;-33.956;151.076;2023-01-26T10:06:12;3.95;;;3.03;;
48647;SDS011;34437;-33.956;151.076;2023-01-26T10:08:39;3.50;;;2.80;;
48647;SDS011;34437;-33.956;151.076;2023-01-26T10:11:06;3.85;;;3.03;;
48647;SDS011;34437;-33.956;151.076;2023-01-26T10:13:56;4.35;;;3.70;;
48647;SDS011;34437;-33.956;151.076;2023-01-26T10:16:27;4.50;;;2.92;;
48647;SDS011;34437;-33.956;151.076;2023-01-26T10:18:56;4.78;;;3.45;;
48647;SDS011;34437;-33.956;151.076;2023-01-26T10:21:25;4.72;;;3.55;;
48647;SDS011;34437;-33.956;151.076;2023-01-26T10:23:53;5.07;;;3.30;;
48647;SDS011;34437;-33.956;151.076;2023-01-26T10:26:20;4.55;;;3.55;;
48647;SDS011;34437;-33.956;151.076;2023-01-26T10:28:44;5.70;;;3.45;;
48647;SDS011;34437;-33.956;151.076;2023-01-26T10:31:13;6.57;;;3.40;;
48647;SDS011;34437;-33.956;151.076;2023-01-26T10:33:42;4.15;;;3.30;;
48647;SDS011;34437;-33.956;151.076;2023-01-26T10:36:14;5.15;;;3.50;;
48647;SDS011;34437;-33.956;151.076;2023-01-26T10:38:37;5.28;;;2.83;;
48647;SDS011;34437;-33.956;151.076;2023-01-26T10:41:02;4.00;;;3.00;;
48647;SDS011;34437;-33.956;151.076;2023-01-26T10:44:30;5.80;;;3.05;;
48647;SDS011;34437;-33.956;151.076;2023-01-26T10:46:31;3.97;;;3.00;;
48647;SDS011;34437;-33.956;151.076;2023-01-26T10:48:57;9.18;;;3.55;;
48647;SDS011;34437;-33.956;151.076;2023-01-26T10:51:32;9.48;;;2.85;;
48647;SDS011;34437;-33.956;151.076;2023-01-26T10:54:18;4.07;;;2.53;;
48647;SDS011;34437;-33.956;151.076;2023-01-26T10:56:46;5.05;;;2.78;;
48647;SDS011;34437;-33.956;151.076;2023-01-26T10:59:12;6.38;;;2.92;;
48647;SDS011;34437;-33.956;151.076;2023-01-26T11:02:14;10.63;;;3.83;;
48647;SDS011;34437;-33.956;151.076;2023-01-26T11:07:38;9.85;;;4.20;;
48647;SDS011;34437;-33.956;151.076;2023-01-26T11:12:43;9.63;;;5.40;;
48647;SDS011;34437;-33.956;151.076;2023-01-26T11:15:10;8.75;;;4.70;;
48647;SDS011;34437;-33.956;151.076;2023-01-26T11:17:51;9.18;;;4.90;;
48647;SDS011;34437;-33.956;151.076;2023-01-26T11:36:57;13.65;;;5.68;;
48647;SDS011;34437;-33.956;151.076;2023-01-26T11:39:33;11.43;;;5.05;;
48647;SDS011;34437;-33.956;151.076;2023-01-26T11:57:41;11.40;;;4.57;;
48647;SDS011;34437;-33.956;151.076;2023-01-26T12:00:17;11.45;;;4.28;;
48647;SDS011;34437;-33.956;151.076;2023-01-26T12:03:10;13.57;;;4.75;;
48647;SDS011;34437;-33.956;151.076;2023-01-26T12:06:00;12.48;;;4.47;;
48647;SDS011;34437;-33.956;151.076;2023-01-26T12:11:22;11.52;;;4.45;;
48647;SDS011;34437;-33.956;151.076;2023-01-26T12:13:58;12.95;;;4.65;;
48647;SDS011;34437;-33.956;151.076;2023-01-26T12:22:41;11.32;;;4.20;;
48647;SDS011;34437;-33.956;151.076;2023-01-26T12:28:02;9.43;;;4.50;;
48647;SDS011;34437;-33.956;151.076;2023-01-26T12:33:24;13.02;;;4.03;;
48647;SDS011;34437;-33.956;151.076;2023-01-26T12:41:16;9.93;;;3.80;;
48647;SDS011;34437;-33.956;151.076;2023-01-26T12:43:51;14.02;;;4.95;;
48647;SDS011;34437;-33.956;151.076;2023-01-26T12:46:33;11.52;;;4.30;;
48647;SDS011;34437;-33.956;151.076;2023-01-26T12:49:44;14.48;;;4.47;;
48647;SDS011;34437;-33.956;151.076;2023-01-26T12:52:11;10.95;;;3.60;;
48647;SDS011;34437;-33.956;151.076;2023-01-26T12:54:39;10.23;;;3.63;;
48647;SDS011;34437;-33.956;151.076;2023-01-26T12:57:30;8.32;;;3.50;;
48647;SDS011;34437;-33.956;151.076;2023-01-26T13:02:58;8.73;;;3.83;;
48647;SDS011;34437;-33.956;151.076;2023-01-26T13:05:36;7.53;;;3.50;;
48647;SDS011;34437;-33.956;151.076;2023-01-26T13:10:51;10.20;;;3.15;;
48647;SDS011;34437;-33.956;151.076;2023-01-26T13:15:45;11.77;;;3.55;;
48647;SDS011;34437;-33.956;151.076;2023-01-26T13:18:46;8.68;;;2.97;;
48647;SDS011;34437;-33.956;151.076;2023-01-26T13:23:59;6.57;;;2.80;;
48647;SDS011;34437;-33.956;151.076;2023-01-26T13:26:46;8.00;;;2.65;;
48647;SDS011;34437;-33.956;151.076;2023-01-26T13:34:42;7.18;;;2.70;;
48647;SDS011;34437;-33.956;151.076;2023-01-26T13:39:51;5.60;;;2.30;;
48647;SDS011;34437;-33.956;151.076;2023-01-26T13:42:23;7.10;;;2.97;;
48647;SDS011;34437;-33.956;151.076;2023-01-26T13:45:05;4.70;;;2.92;;
48647;SDS011;34437;-33.956;151.076;2023-01-26T13:48:45;8.32;;;2.83;;
48647;SDS011;34437;-33.956;151.076;2023-01-26T13:51:00;6.95;;;2.83;;
48647;SDS011;34437;-33.956;151.076;2023-01-26T13:56:05;6.05;;;2.60;;
48647;SDS011;34437;-33.956;151.076;2023-01-26T13:58:40;6.60;;;2.75;;
48647;SDS011;34437;-33.956;151.076;2023-01-26T14:01:04;9.82;;;2.50;;
48647;SDS011;34437;-33.956;151.076;2023-01-26T14:03:28;7.07;;;2.63;;
48647;SDS011;34437;-33.956;151.076;2023-01-26T14:08:15;9.25;;;2.83;;
48647;SDS011;34437;-33.956;151.076;2023-01-26T14:10:41;8.63;;;2.75;;
48647;SDS011;34437;-33.956;151.076;2023-01-26T14:13:04;8.88;;;2.88;;
48647;SDS011;34437;-33.956;151.076;2023-01-26T14:15:30;9.80;;;2.78;;
48647;SDS011;34437;-33.956;151.076;2023-01-26T14:17:56;6.90;;;2.53;;
48647;SDS011;34437;-33.956;151.076;2023-01-26T14:20:32;25.75;;;5.05;;
48647;SDS011;34437;-33.956;151.076;2023-01-26T14:23:09;14.73;;;4.30;;
48647;SDS011;34437;-33.956;151.076;2023-01-26T14:25:35;20.63;;;3.70;;
48647;SDS011;34437;-33.956;151.076;2023-01-26T14:27:59;13.18;;;3.65;;
48647;SDS011;34437;-33.956;151.076;2023-01-26T14:33:13;12.23;;;3.30;;
48647;SDS011;34437;-33.956;151.076;2023-01-26T14:35:37;8.18;;;3.17;;
48647;SDS011;34437;-33.956;151.076;2023-01-26T14:40:32;6.72;;;3.05;;
48647;SDS011;34437;-33.956;151.076;2023-01-26T14:42:54;10.07;;;3.05;;
48647;SDS011;34437;-33.956;151.076;2023-01-26T14:45:18;6.03;;;2.83;;
48647;SDS011;34437;-33.956;151.076;2023-01-26T14:47:52;6.47;;;2.78;;
48647;SDS011;34437;-33.956;151.076;2023-01-26T14:50:18;12.52;;;3.13;;
48647;SDS011;34437;-33.956;151.076;2023-01-26T14:52:50;9.18;;;3.03;;
48647;SDS011;34437;-33.956;151.076;2023-01-26T14:55:26;10.45;;;3.83;;
48647;SDS011;34437;-33.956;151.076;2023-01-26T14:57:50;10.05;;;2.95;;
48647;SDS011;34437;-33.956;151.076;2023-01-26T15:00:34;12.27;;;3.30;;
48647;SDS011;34437;-33.956;151.076;2023-01-26T15:02:59;9.70;;;3.03;;
48647;SDS011;34437;-33.956;151.076;2023-01-26T15:05:34;8.35;;;2.88;;
48647;SDS011;34437;-33.956;151.076;2023-01-26T15:07:59;5.88;;;2.83;;
48647;SDS011;34437;-33.956;151.076;2023-01-26T15:13:28;10.32;;;3.00;;
48647;SDS011;34437;-33.956;151.076;2023-01-26T15:15:46;8.75;;;2.83;;
48647;SDS011;34437;-33.956;151.076;2023-01-26T15:18:24;8.45;;;2.40;;
48647;SDS011;34437;-33.956;151.076;2023-01-26T15:24:03;5.45;;;2.50;;
48647;SDS011;34437;-33.956;151.076;2023-01-26T15:26:31;10.32;;;3.03;;
48647;SDS011;34437;-33.956;151.076;2023-01-26T15:28:56;7.53;;;2.90;;
48647;SDS011;34437;-33.956;151.076;2023-01-26T15:31:20;6.95;;;2.70;;
48647;SDS011;34437;-33.956;151.076;2023-01-26T15:34:04;5.57;;;2.67;;
48647;SDS011;34437;-33.956;151.076;2023-01-26T15:36:47;6.57;;;3.00;;
48647;SDS011;34437;-33.956;151.076;2023-01-26T15:39:12;6.10;;;2.53;;
48647;SDS011;34437;-33.956;151.076;2023-01-26T15:41:35;5.95;;;2.70;;
48647;SDS011;34437;-33.956;151.076;2023-01-26T15:43:58;6.75;;;2.80;;
48647;SDS011;34437;-33.956;151.076;2023-01-26T15:46:20;7.30;;;2.90;;
48647;SDS011;34437;-33.956;151.076;2023-01-26T15:48:43;8.02;;;2.53;;
48647;SDS011;34437;-33.956;151.076;2023-01-26T15:51:14;8.32;;;3.03;;
48647;SDS011;34437;-33.956;151.076;2023-01-26T15:53:37;7.88;;;2.70;;
48647;SDS011;34437;-33.956;151.076;2023-01-26T15:55:59;6.45;;;2.33;;
48647;SDS011;34437;-33.956;151.076;2023-01-26T15:58:22;5.90;;;2.78;;
48647;SDS011;34437;-33.956;151.076;2023-01-26T16:00:45;5.18;;;2.65;;
48647;SDS011;34437;-33.956;151.076;2023-01-26T16:03:10;9.45;;;2.70;;
48647;SDS011;34437;-33.956;151.076;2023-01-26T16:05:36;7.43;;;2.60;;
48647;SDS011;34437;-33.956;151.076;2023-01-26T16:07:58;4.90;;;3.03;;
48647;SDS011;34437;-33.956;151.076;2023-01-26T16:10:21;8.07;;;2.65;;
48647;SDS011;34437;-33.956;151.076;2023-01-26T16:12:44;6.13;;;2.67;;
48647;SDS011;34437;-33.956;151.076;2023-01-26T16:15:17;4.68;;;2.47;;
48647;SDS011;34437;-33.956;151.076;2023-01-26T16:20:36;6.18;;;2.30;;
48647;SDS011;34437;-33.956;151.076;2023-01-26T16:23:00;6.38;;;3.00;;
48647;SDS011;34437;-33.956;151.076;2023-01-26T16:25:26;8.10;;;3.15;;
48647;SDS011;34437;-33.956;151.076;2023-01-26T16:27:51;5.80;;;3.05;;
48647;SDS011;34437;-33.956;151.076;2023-01-26T16:30:14;7.93;;;2.63;;
48647;SDS011;34437;-33.956;151.076;2023-01-26T16:32:37;7.70;;;3.20;;
48647;SDS011;34437;-33.956;151.076;2023-01-26T16:34:59;7.20;;;3.25;;
48647;SDS011;34437;-33.956;151.076;2023-01-26T16:37:22;5.68;;;2.95;;
48647;SDS011;34437;-33.956;151.076;2023-01-26T16:39:44;9.85;;;3.10;;
48647;SDS011;34437;-33.956;151.076;2023-01-26T16:42:08;3.92;;;2.33;;
48647;SDS011;34437;-33.956;151.076;2023-01-26T16:44:37;5.47;;;2.40;;
48647;SDS011;34437;-33.956;151.076;2023-01-26T16:46:59;4.85;;;2.58;;
48647;SDS011;34437;-33.956;151.076;2023-01-26T16:49:24;7.03;;;2.60;;
48647;SDS011;34437;-33.956;151.076;2023-01-26T16:51:49;5.50;;;2.58;;
48647;SDS011;34437;-33.956;151.076;2023-01-26T16:54:11;5.28;;;2.45;;
48647;SDS011;34437;-33.956;151.076;2023-01-26T16:56:34;5.78;;;2.78;;
48647;SDS011;34437;-33.956;151.076;2023-01-26T16:58:56;7.60;;;3.03;;
48647;SDS011;34437;-33.956;151.076;2023-01-26T17:01:25;6.10;;;2.65;;
48647;SDS011;34437;-33.956;151.076;2023-01-26T17:03:53;5.10;;;2.90;;
48647;SDS011;34437;-33.956;151.076;2023-01-26T17:06:17;6.82;;;2.50;;
48647;SDS011;34437;-33.956;151.076;2023-01-26T17:08:40;5.45;;;2.78;;
48647;SDS011;34437;-33.956;151.076;2023-01-26T17:11:02;4.90;;;2.47;;
48647;SDS011;34437;-33.956;151.076;2023-01-26T17:13:25;4.88;;;2.28;;
48647;SDS011;34437;-33.956;151.076;2023-01-26T17:15:47;6.40;;;2.50;;
48647;SDS011;34437;-33.956;151.076;2023-01-26T17:18:10;6.60;;;3.05;;
48647;SDS011;34437;-33.956;151.076;2023-01-26T17:20:33;6.57;;;2.83;;
48647;SDS011;34437;-33.956;151.076;2023-01-26T17:22:56;6.07;;;2.50;;
48647;SDS011;34437;-33.956;151.076;2023-01-26T17:25:18;11.68;;;2.78;;
48647;SDS011;34437;-33.956;151.076;2023-01-26T17:27:41;6.20;;;2.50;;
48647;SDS011;34437;-33.956;151.076;2023-01-26T17:30:04;4.50;;;2.33;;
48647;SDS011;34437;-33.956;151.076;2023-01-26T17:32:30;4.97;;;2.45;;
48647;SDS011;34437;-33.956;151.076;2023-01-26T17:34:53;2.92;;;2.08;;
48647;SDS011;34437;-33.956;151.076;2023-01-26T17:37:16;7.03;;;2.47;;
48647;SDS011;34437;-33.956;151.076;2023-01-26T17:39:39;5.80;;;2.58;;
48647;SDS011;34437;-33.956;151.076;2023-01-26T17:42:02;4.60;;;2.65;;
48647;SDS011;34437;-33.956;151.076;2023-01-26T17:44:25;6.75;;;2.97;;
48647;SDS011;34437;-33.956;151.076;2023-01-26T17:46:47;5.22;;;2.30;;
48647;SDS011;34437;-33.956;151.076;2023-01-26T17:49:09;6.63;;;2.30;;
48647;SDS011;34437;-33.956;151.076;2023-01-26T17:51:32;5.47;;;2.50;;
48647;SDS011;34437;-33.956;151.076;2023-01-26T17:53:54;6.88;;;2.65;;
48647;SDS011;34437;-33.956;151.076;2023-01-26T17:56:17;4.90;;;2.42;;
48647;SDS011;34437;-33.956;151.076;2023-01-26T17:58:41;7.53;;;2.42;;
48647;SDS011;34437;-33.956;151.076;2023-01-26T18:01:08;6.25;;;2.30;;
48647;SDS011;34437;-33.956;151.076;2023-01-26T18:03:31;6.15;;;2.78;;
48647;SDS011;34437;-33.956;151.076;2023-01-26T18:05:54;6.70;;;2.30;;
48647;SDS011;34437;-33.956;151.076;2023-01-26T18:10:39;6.57;;;2.20;;
48647;SDS011;34437;-33.956;151.076;2023-01-26T18:13:01;5.35;;;2.40;;
48647;SDS011;34437;-33.956;151.076;2023-01-26T18:15:24;5.28;;;2.25;;
48647;SDS011;34437;-33.956;151.076;2023-01-26T18:17:46;6.05;;;2.45;;
48647;SDS011;34437;-33.956;151.076;2023-01-26T18:20:09;7.10;;;2.72;;
48647;SDS011;34437;-33.956;151.076;2023-01-26T18:22:33;7.30;;;2.60;;
48647;SDS011;34437;-33.956;151.076;2023-01-26T18:24:55;8.40;;;2.83;;
48647;SDS011;34437;-33.956;151.076;2023-01-26T18:27:18;5.55;;;2.90;;
48647;SDS011;34437;-33.956;151.076;2023-01-26T18:29:40;5.38;;;2.33;;
48647;SDS011;34437;-33.956;151.076;2023-01-26T18:32:02;5.28;;;2.42;;
48647;SDS011;34437;-33.956;151.076;2023-01-26T18:34:26;5.88;;;2.83;;
48647;SDS011;34437;-33.956;151.076;2023-01-26T18:36:48;5.47;;;2.60;;
48647;SDS011;34437;-33.956;151.076;2023-01-26T18:39:12;4.43;;;2.65;;
48647;SDS011;34437;-33.956;151.076;2023-01-26T18:41:36;6.38;;;2.75;;
48647;SDS011;34437;-33.956;151.076;2023-01-26T18:44:00;5.32;;;2.58;;
48647;SDS011;34437;-33.956;151.076;2023-01-26T18:46:24;8.27;;;3.17;;
48647;SDS011;34437;-33.956;151.076;2023-01-26T18:48:48;8.13;;;2.90;;
48647;SDS011;34437;-33.956;151.076;2023-01-26T18:51:13;5.95;;;2.60;;
48647;SDS011;34437;-33.956;151.076;2023-01-26T18:53:38;6.50;;;2.47;;
48647;SDS011;34437;-33.956;151.076;2023-01-26T18:56:04;4.80;;;2.38;;
48647;SDS011;34437;-33.956;151.076;2023-01-26T18:58:29;5.43;;;2.40;;
48647;SDS011;34437;-33.956;151.076;2023-01-26T19:00:52;6.47;;;2.40;;
48647;SDS011;34437;-33.956;151.076;2023-01-26T19:03:14;5.55;;;2.08;;
48647;SDS011;34437;-33.956;151.076;2023-01-26T19:05:38;7.03;;;2.28;;
48647;SDS011;34437;-33.956;151.076;2023-01-26T19:08:00;4.80;;;2.40;;
48647;SDS011;34437;-33.956;151.076;2023-01-26T19:10:29;6.05;;;2.50;;
48647;SDS011;34437;-33.956;151.076;2023-01-26T19:12:52;5.25;;;2.10;;
48647;SDS011;34437;-33.956;151.076;2023-01-26T19:15:14;5.18;;;2.25;;
48647;SDS011;34437;-33.956;151.076;2023-01-26T19:17:37;5.13;;;2.30;;
48647;SDS011;34437;-33.956;151.076;2023-01-26T19:20:01;6.10;;;2.10;;
48647;SDS011;34437;-33.956;151.076;2023-01-26T19:22:24;5.97;;;2.20;;
48647;SDS011;34437;-33.956;151.076;2023-01-26T19:24:46;6.97;;;2.10;;
48647;SDS011;34437;-33.956;151.076;2023-01-26T19:27:09;5.82;;;2.58;;
48647;SDS011;34437;-33.956;151.076;2023-01-26T19:29:31;6.97;;;2.33;;
48647;SDS011;34437;-33.956;151.076;2023-01-26T19:31:54;5.88;;;2.28;;
48647;SDS011;34437;-33.956;151.076;2023-01-26T19:34:16;4.70;;;2.20;;
48647;SDS011;34437;-33.956;151.076;2023-01-26T19:36:39;5.07;;;2.42;;
48647;SDS011;34437;-33.956;151.076;2023-01-26T19:39:02;7.60;;;2.30;;
48647;SDS011;34437;-33.956;151.076;2023-01-26T19:41:26;5.22;;;2.25;;
48647;SDS011;34437;-33.956;151.076;2023-01-26T19:43:48;4.50;;;2.40;;
48647;SDS011;34437;-33.956;151.076;2023-01-26T19:46:11;9.82;;;2.35;;
48647;SDS011;34437;-33.956;151.076;2023-01-26T19:48:35;4.13;;;2.00;;
48647;SDS011;34437;-33.956;151.076;2023-01-26T19:50:58;5.53;;;2.20;;
48647;SDS011;34437;-33.956;151.076;2023-01-26T19:53:26;6.05;;;2.28;;
48647;SDS011;34437;-33.956;151.076;2023-01-26T19:55:50;4.28;;;1.75;;
48647;SDS011;34437;-33.956;151.076;2023-01-26T19:58:12;4.28;;;2.15;;
48647;SDS011;34437;-33.956;151.076;2023-01-26T20:00:34;5.55;;;2.28;;
48647;SDS011;34437;-33.956;151.076;2023-01-26T20:02:57;6.40;;;2.13;;
48647;SDS011;34437;-33.956;151.076;2023-01-26T20:05:19;9.15;;;2.25;;
48647;SDS011;34437;-33.956;151.076;2023-01-26T20:07:42;3.55;;;1.70;;
48647;SDS011;34437;-33.956;151.076;2023-01-26T20:10:05;7.57;;;2.08;;
48647;SDS011;34437;-33.956;151.076;2023-01-26T20:12:28;7.60;;;2.60;;
48647;SDS011;34437;-33.956;151.076;2023-01-26T20:14:50;8.02;;;2.28;;
48647;SDS011;34437;-33.956;151.076;2023-01-26T20:17:13;4.95;;;1.90;;
48647;SDS011;34437;-33.956;151.076;2023-01-26T20:19:36;4.43;;;1.90;;
48647;SDS011;34437;-33.956;151.076;2023-01-26T20:21:58;5.93;;;1.92;;
48647;SDS011;34437;-33.956;151.076;2023-01-26T20:24:22;4.93;;;2.08;;
48647;SDS011;34437;-33.956;151.076;2023-01-26T20:26:45;4.72;;;1.70;;
48647;SDS011;34437;-33.956;151.076;2023-01-26T20:29:12;5.38;;;2.33;;
48647;SDS011;34437;-33.956;151.076;2023-01-26T20:31:36;5.88;;;1.85;;
48647;SDS011;34437;-33.956;151.076;2023-01-26T20:33:58;5.75;;;2.10;;
48647;SDS011;34437;-33.956;151.076;2023-01-26T20:36:23;6.72;;;2.53;;
48647;SDS011;34437;-33.956;151.076;2023-01-26T20:38:47;4.28;;;1.90;;
48647;SDS011;34437;-33.956;151.076;2023-01-26T20:41:12;3.28;;;1.67;;
48647;SDS011;34437;-33.956;151.076;2023-01-26T20:43:36;4.57;;;1.85;;
48647;SDS011;34437;-33.956;151.076;2023-01-26T20:45:59;6.35;;;2.17;;
48647;SDS011;34437;-33.956;151.076;2023-01-26T20:48:21;4.80;;;2.30;;
48647;SDS011;34437;-33.956;151.076;2023-01-26T20:50:44;4.32;;;2.78;;
48647;SDS011;34437;-33.956;151.076;2023-01-26T20:53:06;7.47;;;3.35;;
48647;SDS011;34437;-33.956;151.076;2023-01-26T20:55:29;7.53;;;3.85;;
48647;SDS011;34437;-33.956;151.076;2023-01-26T20:57:51;6.53;;;3.72;;
48647;SDS011;34437;-33.956;151.076;2023-01-26T21:00:13;9.32;;;5.25;;
48647;SDS011;34437;-33.956;151.076;2023-01-26T21:02:36;9.40;;;6.43;;
48647;SDS011;34437;-33.956;151.076;2023-01-26T21:04:59;9.98;;;6.30;;
48647;SDS011;34437;-33.956;151.076;2023-01-26T21:07:21;13.10;;;7.68;;
48647;SDS011;34437;-33.956;151.076;2023-01-26T21:09:44;11.95;;;8.52;;
48647;SDS011;34437;-33.956;151.076;2023-01-26T21:12:06;11.63;;;8.20;;
48647;SDS011;34437;-33.956;151.076;2023-01-26T21:14:28;11.05;;;8.48;;
48647;SDS011;34437;-33.956;151.076;2023-01-26T21:16:51;10.43;;;8.23;;